Juquia, Brazil
Current Conditions -  °F | °C
As of 8:00 PM on Tuesday 21 Oct 2014 (Local Time) from SBSP Reporting Station
Broken Clouds Broken Clouds  
Wind Chill: 61°   Ceiling: 4300
Heat Index: 61°   Visibility: 6mi
Dew Point: 50°   Wind: 15mph
Humidity: 68%   Direction: 150°SSE
Pressure: 30.21"   Gusts: NA
Location:  24.32°S, 47.63°W
Report Text: SBSP 212200Z 15013KT 9999 BKN043 BKN090 16/10 Q1023
Loading
Personal Weather Stations






























Interactive Weather Map
Tropical Storm Tracking
New forecast layout! Learn more

10-Day Weather Forecast

Advertisements
Track Severe Weather on mobile